Highgrove, Kentucky
Current Conditions -  °F | °C
As of 6:56 AM on Monday 20 Oct 2014 (Local Time) from KSDF Reporting Station
Overcast Overcast  
Wind Chill: 45°   Ceiling: 12000
Heat Index: 48°   Visibility: 10mi
Dew Point: 44°   Wind: 6mph
Humidity: 86%   Direction: 140°SE
Pressure: 30.03"   Gusts: NA
Location:  37.9212°N, 85.4864°W
Report Text: KSDF 201056Z 14005KT 10SM OVC120 09/07 A3003 RMK AO2 SLP169 T00890067
Loading
Personal Weather Stations






























Interactive Weather Map
Tropical Storm Tracking
New forecast layout! Learn more

10-Day Weather Forecast

Advertisements
Track Severe Weather on mobile